Time,TemperatureF,DewpointF,PressureIn,WindDirection,WindDirectionDegrees,WindSpeedMPH,WindSpeedGustMPH,Humidity,HourlyPrecipIn,Conditions,Clouds,dailyrainin,SolarRadiationWatts/m^2,SoftwareType,DateUTC
2013-05-19 00:02:00,66.0,63.0,-100.00,ESE,120,9.0,14.0,90,0.00,,,0.00,0.000000,,2013-05-19 05:02:00,
2013-05-19 00:12:00,66.0,63.0,-100.00,ESE,120,9.0,14.0,90,0.00,,,0.00,0.000000,,2013-05-19 05:12:00,
2013-05-19 00:32:00,65.0,64.0,-100.00,SE,124,8.0,12.0,95,0.00,,,0.00,0.000000,,2013-05-19 05:32:00,
2013-05-19 00:42:00,65.0,64.0,-100.00,SE,124,8.0,12.0,95,0.00,,,0.00,0.000000,,2013-05-19 05:42:00,
2013-05-19 00:52:00,65.0,64.0,-100.00,SE,124,8.0,12.0,95,0.00,,,0.00,0.000000,,2013-05-19 05:52:00,
2013-05-19 01:02:00,65.0,64.0,-100.00,SE,124,8.0,12.0,95,0.00,,,0.00,0.000000,,2013-05-19 06:02:00,
2013-05-19 01:12:00,65.0,64.0,-100.00,SE,124,8.0,12.0,95,0.00,,,0.00,0.000000,,2013-05-19 06:12:00,
2013-05-19 01:42:00,63.0,63.0,-100.00,SE,139,5.0,10.0,99,0.00,,,0.00,0.000000,,2013-05-19 06:42:00,
2013-05-19 01:52:00,63.0,63.0,-100.00,SE,139,5.0,10.0,99,0.00,,,0.00,0.000000,,2013-05-19 06:52:00,
2013-05-19 02:01:00,63.0,63.0,-100.00,SE,139,5.0,10.0,99,0.00,,,0.00,0.000000,,2013-05-19 07:01:00,
2013-05-19 02:11:00,63.0,63.0,-100.00,SE,139,5.0,10.0,99,0.00,,,0.00,0.000000,,2013-05-19 07:11:00,
2013-05-19 02:42:00,63.0,63.0,-100.00,ESE,115,8.0,11.0,100,0.00,,,0.00,0.000000,,2013-05-19 07:42:00,
2013-05-19 02:52:00,63.0,63.0,-100.00,ESE,115,8.0,11.0,100,0.00,,,0.00,0.000000,,2013-05-19 07:52:00,
2013-05-19 03:01:00,63.0,63.0,-100.00,ESE,115,8.0,11.0,100,0.00,,,0.00,0.000000,,2013-05-19 08:01:00,
2013-05-19 03:12:00,63.0,63.0,-100.00,ESE,115,8.0,11.0,100,0.00,,,0.00,0.000000,,2013-05-19 08:12:00,
2013-05-19 03:32:00,62.0,62.0,-100.00,ESE,112,7.0,10.0,100,0.00,,,0.00,0.000000,,2013-05-19 08:32:00,
2013-05-19 03:42:00,62.0,62.0,-100.00,ESE,112,7.0,10.0,100,0.00,,,0.00,0.000000,,2013-05-19 08:42:00,
2013-05-19 03:52:00,62.0,62.0,-100.00,ESE,112,7.0,10.0,100,0.00,,,0.00,0.000000,,2013-05-19 08:52:00,
2013-05-19 04:02:00,62.0,62.0,-100.00,ESE,112,7.0,10.0,100,0.00,,,0.00,0.000000,,2013-05-19 09:02:00,
2013-05-19 04:12:00,62.0,62.0,-100.00,ESE,112,7.0,10.0,100,0.00,,,0.00,0.000000,,2013-05-19 09:12:00,
2013-05-19 04:33:00,61.0,61.0,-100.00,SE,134,3.0,8.0,100,0.00,,,0.00,0.000000,,2013-05-19 09:33:00,
2013-05-19 04:43:00,61.0,61.0,-100.00,SE,134,3.0,8.0,100,0.00,,,0.00,0.000000,,2013-05-19 09:43:00,
2013-05-19 04:53:00,61.0,61.0,-100.00,SE,134,3.0,8.0,100,0.00,,,0.00,0.000000,,2013-05-19 09:53:00,
2013-05-19 05:02:00,61.0,61.0,-100.00,SE,134,3.0,8.0,100,0.00,,,0.00,0.000000,,2013-05-19 10:02:00,
2013-05-19 05:12:00,61.0,61.0,-100.00,SE,134,3.0,8.0,100,0.00,,,0.00,0.000000,,2013-05-19 10:12:00,
2013-05-19 05:33:00,60.0,60.0,-100.00,ESE,116,6.0,8.0,100,0.00,,,0.00,0.000000,,2013-05-19 10:33:00,
2013-05-19 05:42:00,60.0,60.0,-100.00,ESE,116,6.0,8.0,100,0.00,,,0.00,0.000000,,2013-05-19 10:42:00,
2013-05-19 05:53:00,60.0,60.0,-100.00,ESE,116,6.0,8.0,100,0.00,,,0.00,0.000000,,2013-05-19 10:53:00,
2013-05-19 06:02:00,60.0,60.0,-100.00,ESE,116,6.0,8.0,100,0.00,,,0.00,0.000000,,2013-05-19 11:02:00,
2013-05-19 06:12:00,60.0,60.0,-100.00,ESE,116,6.0,8.0,100,0.00,,,0.00,0.000000,,2013-05-19 11:12:00,
2013-05-19 06:32:00,62.0,62.0,-100.00,SE,125,5.0,9.0,100,0.00,,,0.00,21.000000,,2013-05-19 11:32:00,
2013-05-19 06:42:00,62.0,62.0,-100.00,SE,125,5.0,9.0,100,0.00,,,0.00,21.000000,,2013-05-19 11:42:00,
2013-05-19 06:52:00,62.0,62.0,-100.00,SE,125,5.0,9.0,100,0.00,,,0.00,21.000000,,2013-05-19 11:52:00,
2013-05-19 07:01:00,62.0,62.0,-100.00,SE,125,5.0,9.0,100,0.00,,,0.00,21.000000,,2013-05-19 12:01:00,
2013-05-19 07:11:00,62.0,62.0,-100.00,SE,125,5.0,9.0,100,0.00,,,0.00,21.000000,,2013-05-19 12:11:00,
2013-05-19 07:32:00,63.0,63.0,-100.00,SE,128,4.0,9.0,100,0.00,,,0.00,87.000000,,2013-05-19 12:32:00,
2013-05-19 07:42:00,63.0,63.0,-100.00,SE,128,4.0,9.0,100,0.00,,,0.00,87.000000,,2013-05-19 12:42:00,
2013-05-19 07:52:00,63.0,63.0,-100.00,SE,128,4.0,9.0,100,0.00,,,0.00,87.000000,,2013-05-19 12:52:00,
2013-05-19 08:01:00,63.0,63.0,-100.00,SE,128,4.0,9.0,100,0.00,,,0.00,87.000000,,2013-05-19 13:01:00,
2013-05-19 08:11:00,63.0,63.0,-100.00,SE,128,4.0,9.0,100,0.00,,,0.00,87.000000,,2013-05-19 13:11:00,
2013-05-19 08:42:00,69.0,67.0,-100.00,SE,145,8.0,12.0,92,0.00,,,0.00,254.000000,,2013-05-19 13:42:00,
2013-05-19 08:52:00,69.0,67.0,-100.00,SE,145,8.0,12.0,92,0.00,,,0.00,254.000000,,2013-05-19 13:52:00,
2013-05-19 09:11:00,69.0,67.0,-100.00,SE,145,8.0,12.0,92,0.00,,,0.00,254.000000,,2013-05-19 14:11:00,
2013-05-19 09:42:00,73.0,68.0,-100.00,SSE,151,10.0,14.0,83,0.00,,,0.00,418.000000,,2013-05-19 14:42:00,
2013-05-19 09:52:00,73.0,68.0,-100.00,SSE,151,10.0,14.0,83,0.00,,,0.00,418.000000,,2013-05-19 14:52:00,
2013-05-19 10:01:00,73.0,68.0,-100.00,SSE,151,10.0,14.0,83,0.00,,,0.00,418.000000,,2013-05-19 15:01:00,
2013-05-19 10:11:00,73.0,68.0,-100.00,SSE,151,10.0,14.0,83,0.00,,,0.00,418.000000,,2013-05-19 15:11:00,
2013-05-19 10:43:00,74.0,67.0,-100.00,SSE,157,9.0,17.0,79,0.00,,,0.00,360.000000,,2013-05-19 15:43:00,
2013-05-19 10:53:00,74.0,67.0,-100.00,SSE,157,9.0,17.0,79,0.00,,,0.00,360.000000,,2013-05-19 15:53:00,
2013-05-19 11:03:00,74.0,67.0,-100.00,SSE,157,9.0,17.0,79,0.00,,,0.00,360.000000,,2013-05-19 16:03:00,
2013-05-19 11:12:00,74.0,67.0,-100.00,SSE,157,9.0,17.0,79,0.00,,,0.00,360.000000,,2013-05-19 16:12:00,
2013-05-19 11:42:00,76.0,67.0,-100.00,SE,146,12.0,19.0,75,0.00,,,0.00,461.000000,,2013-05-19 16:42:00,
2013-05-19 11:52:00,76.0,67.0,-100.00,SE,146,12.0,19.0,75,0.00,,,0.00,461.000000,,2013-05-19 16:52:00,
2013-05-19 12:02:00,76.0,67.0,-100.00,SE,146,12.0,19.0,75,0.00,,,0.00,461.000000,,2013-05-19 17:02:00,
2013-05-19 12:12:00,76.0,67.0,-100.00,SE,146,12.0,19.0,75,0.00,,,0.00,461.000000,,2013-05-19 17:12:00,
2013-05-19 12:43:00,76.0,67.0,-100.00,ESE,114,15.0,20.0,74,0.00,,,0.00,347.000000,,2013-05-19 17:43:00,
2013-05-19 12:52:00,76.0,67.0,-100.00,ESE,114,15.0,20.0,74,0.00,,,0.00,347.000000,,2013-05-19 17:52:00,
2013-05-19 13:02:00,76.0,67.0,-100.00,ESE,114,15.0,20.0,74,0.00,,,0.00,347.000000,,2013-05-19 18:02:00,
2013-05-19 13:12:00,76.0,67.0,-100.00,ESE,114,15.0,20.0,74,0.00,,,0.00,347.000000,,2013-05-19 18:12:00,
2013-05-19 13:32:00,81.0,67.0,-100.00,SSE,157,14.0,28.0,63,0.00,,,0.00,718.000000,,2013-05-19 18:32:00,
2013-05-19 13:43:00,81.0,67.0,-100.00,SSE,157,14.0,28.0,63,0.00,,,0.00,718.000000,,2013-05-19 18:43:00,
2013-05-19 13:53:00,81.0,67.0,-100.00,SSE,157,14.0,28.0,63,0.00,,,0.00,718.000000,,2013-05-19 18:53:00,
2013-05-19 14:01:00,81.0,67.0,-100.00,SSE,157,14.0,28.0,63,0.00,,,0.00,718.000000,,2013-05-19 19:01:00,
2013-05-19 14:11:00,81.0,67.0,-100.00,SSE,157,14.0,28.0,63,0.00,,,0.00,718.000000,,2013-05-19 19:11:00,
2013-05-19 14:32:00,83.0,66.0,-100.00,SSE,164,13.0,23.0,57,0.00,,,0.00,662.000000,,2013-05-19 19:32:00,
2013-05-19 14:42:00,83.0,66.0,-100.00,SSE,164,13.0,23.0,57,0.00,,,0.00,662.000000,,2013-05-19 19:42:00,
2013-05-19 14:52:00,83.0,66.0,-100.00,SSE,164,13.0,23.0,57,0.00,,,0.00,662.000000,,2013-05-19 19:52:00,
2013-05-19 15:02:00,83.0,66.0,-100.00,SSE,164,13.0,23.0,57,0.00,,,0.00,662.000000,,2013-05-19 20:02:00,
2013-05-19 15:11:00,83.0,66.0,-100.00,SSE,164,13.0,23.0,57,0.00,,,0.00,662.000000,,2013-05-19 20:11:00,
2013-05-19 15:42:00,84.0,64.0,-100.00,SSE,161,15.0,25.0,51,0.00,,,0.00,663.000000,,2013-05-19 20:42:00,
2013-05-19 15:52:00,84.0,64.0,-100.00,SSE,161,15.0,25.0,51,0.00,,,0.00,663.000000,,2013-05-19 20:52:00,
2013-05-19 16:02:00,84.0,64.0,-100.00,SSE,161,15.0,25.0,51,0.00,,,0.00,663.000000,,2013-05-19 21:02:00,
2013-05-19 16:11:00,84.0,64.0,-100.00,SSE,161,15.0,25.0,51,0.00,,,0.00,663.000000,,2013-05-19 21:11:00,
2013-05-19 16:32:00,80.0,59.0,-100.00,SSE,161,17.0,30.0,48,0.00,,,0.00,367.000000,,2013-05-19 21:32:00,
2013-05-19 16:43:00,80.0,59.0,-100.00,SSE,161,17.0,30.0,48,0.00,,,0.00,367.000000,,2013-05-19 21:43:00,
2013-05-19 16:53:00,80.0,59.0,-100.00,SSE,161,17.0,30.0,48,0.00,,,0.00,367.000000,,2013-05-19 21:53:00,
2013-05-19 17:03:00,80.0,59.0,-100.00,SSE,161,17.0,30.0,48,0.00,,,0.00,367.000000,,2013-05-19 22:03:00,
2013-05-19 17:12:00,80.0,59.0,-100.00,SSE,161,17.0,30.0,48,0.00,,,0.00,367.000000,,2013-05-19 22:12:00,
2013-05-19 17:42:00,74.0,59.0,-100.00,SE,137,5.0,24.0,59,0.00,,,0.00,110.000000,,2013-05-19 22:42:00,
2013-05-19 17:53:00,74.0,59.0,-100.00,SE,137,5.0,24.0,59,0.00,,,0.00,110.000000,,2013-05-19 22:53:00,
2013-05-19 18:02:00,74.0,59.0,-100.00,SE,137,5.0,24.0,59,0.00,,,0.00,110.000000,,2013-05-19 23:02:00,
2013-05-19 18:11:00,74.0,59.0,-100.00,SE,137,5.0,24.0,59,0.00,,,0.00,110.000000,,2013-05-19 23:11:00,
2013-05-19 18:42:00,76.0,62.0,-100.00,ESE,113,3.0,15.0,61,0.00,,,0.00,219.000000,,2013-05-19 23:42:00,
2013-05-19 18:52:00,76.0,62.0,-100.00,ESE,113,3.0,15.0,61,0.00,,,0.00,219.000000,,2013-05-19 23:52:00,
2013-05-19 19:02:00,76.0,62.0,-100.00,ESE,113,3.0,15.0,61,0.00,,,0.00,219.000000,,2013-05-20 00:02:00,
2013-05-19 19:11:00,76.0,62.0,-100.00,ESE,113,3.0,15.0,61,0.00,,,0.00,219.000000,,2013-05-20 00:11:00,
2013-05-19 19:42:00,76.0,61.0,-100.00,ESE,112,6.0,9.0,59,0.00,,,-99.99,159.000000,,2013-05-20 00:42:00,
2013-05-19 19:52:00,76.0,61.0,-100.00,ESE,112,6.0,9.0,59,0.00,,,-99.99,159.000000,,2013-05-20 00:52:00,
2013-05-19 20:01:00,76.0,61.0,-100.00,ESE,112,6.0,9.0,59,0.00,,,-99.99,159.000000,,2013-05-20 01:01:00,
2013-05-19 20:11:00,76.0,61.0,-100.00,ESE,112,6.0,9.0,59,0.00,,,-99.99,159.000000,,2013-05-20 01:11:00,
2013-05-19 20:32:00,73.0,61.0,-100.00,East,89,7.0,10.0,67,0.00,,,0.00,46.000000,,2013-05-20 01:32:00,
2013-05-19 20:42:00,73.0,61.0,-100.00,East,89,7.0,10.0,67,0.00,,,0.00,46.000000,,2013-05-20 01:42:00,
2013-05-19 20:52:00,73.0,61.0,-100.00,East,89,7.0,10.0,67,0.00,,,0.00,46.000000,,2013-05-20 01:52:00,
2013-05-19 21:02:00,73.0,61.0,-100.00,East,89,7.0,10.0,67,0.00,,,0.00,46.000000,,2013-05-20 02:02:00,
2013-05-19 21:11:00,73.0,61.0,-100.00,East,89,7.0,10.0,67,0.00,,,0.00,46.000000,,2013-05-20 02:11:00,
2013-05-19 21:32:00,74.0,66.0,-100.00,ESE,111,12.0,16.0,77,0.00,,,0.00,0.000000,,2013-05-20 02:32:00,
2013-05-19 21:42:00,74.0,66.0,-100.00,ESE,111,12.0,16.0,77,0.00,,,0.00,0.000000,,2013-05-20 02:42:00,
2013-05-19 21:52:00,74.0,66.0,-100.00,ESE,111,12.0,16.0,77,0.00,,,0.00,0.000000,,2013-05-20 02:52:00,
2013-05-19 22:01:00,74.0,66.0,-100.00,ESE,111,12.0,16.0,77,0.00,,,0.00,0.000000,,2013-05-20 03:01:00,
2013-05-19 22:11:00,74.0,66.0,-100.00,ESE,111,12.0,16.0,77,0.00,,,0.00,0.000000,,2013-05-20 03:11:00,
2013-05-19 22:33:00,75.0,65.0,-100.00,ESE,122,15.0,22.0,72,0.00,,,0.00,0.000000,,2013-05-20 03:33:00,
2013-05-19 22:43:00,75.0,65.0,-100.00,ESE,122,15.0,22.0,72,0.00,,,0.00,0.000000,,2013-05-20 03:43:00,
2013-05-19 22:52:00,75.0,65.0,-100.00,ESE,122,15.0,22.0,72,0.00,,,0.00,0.000000,,2013-05-20 03:52:00,
2013-05-19 23:03:00,75.0,65.0,-100.00,ESE,122,15.0,22.0,72,0.00,,,0.00,0.000000,,2013-05-20 04:03:00,
2013-05-19 23:13:00,75.0,65.0,-100.00,ESE,122,15.0,22.0,72,0.00,,,0.00,0.000000,,2013-05-20 04:13:00,
2013-05-19 23:33:00,74.0,61.0,-100.00,SE,131,10.0,27.0,65,0.00,,,0.00,0.000000,,2013-05-20 04:33:00,
2013-05-19 23:43:00,74.0,61.0,-100.00,SE,131,10.0,27.0,65,0.00,,,0.00,0.000000,,2013-05-20 04:43:00,
2013-05-19 23:53:00,74.0,61.0,-100.00,SE,131,10.0,27.0,65,0.00,,,0.00,0.000000,,2013-05-20 04:53:00,